sensor_id;sensor_type;location;lat;lon;timestamp;temperature;humidity
5675;DHT22;2860;54.284;10.158;2022-11-15T00:00:08;4.10;99.90
5675;DHT22;2860;54.284;10.158;2022-11-15T00:02:35;4.00;99.90
5675;DHT22;2860;54.284;10.158;2022-11-15T00:05:00;4.10;99.90
5675;DHT22;2860;54.284;10.158;2022-11-15T00:07:26;4.10;99.90
5675;DHT22;2860;54.284;10.158;2022-11-15T00:09:51;4.20;99.90
5675;DHT22;2860;54.284;10.158;2022-11-15T00:12:17;4.10;99.90
5675;DHT22;2860;54.284;10.158;2022-11-15T00:14:42;4.10;99.90
5675;DHT22;2860;54.284;10.158;2022-11-15T00:17:07;4.10;99.90
5675;DHT22;2860;54.284;10.158;2022-11-15T00:19:33;4.20;99.90
5675;DHT22;2860;54.284;10.158;2022-11-15T00:21:59;4.20;99.90
5675;DHT22;2860;54.284;10.158;2022-11-15T00:24:24;4.20;99.90
5675;DHT22;2860;54.284;10.158;2022-11-15T00:26:50;4.20;99.90
5675;DHT22;2860;54.284;10.158;2022-11-15T00:29:15;4.20;99.90
5675;DHT22;2860;54.284;10.158;2022-11-15T00:31:40;4.10;99.90
5675;DHT22;2860;54.284;10.158;2022-11-15T00:34:06;4.10;99.90
5675;DHT22;2860;54.284;10.158;2022-11-15T00:36:34;4.10;99.90
5675;DHT22;2860;54.284;10.158;2022-11-15T00:39:00;4.10;99.90
5675;DHT22;2860;54.284;10.158;2022-11-15T00:41:25;4.00;99.90
5675;DHT22;2860;54.284;10.158;2022-11-15T00:43:51;4.00;99.90
5675;DHT22;2860;54.284;10.158;2022-11-15T00:46:16;3.90;99.90
5675;DHT22;2860;54.284;10.158;2022-11-15T00:48:42;3.90;99.90
5675;DHT22;2860;54.284;10.158;2022-11-15T00:51:07;3.90;99.90
5675;DHT22;2860;54.284;10.158;2022-11-15T00:53:33;3.90;99.90
5675;DHT22;2860;54.284;10.158;2022-11-15T00:55:58;3.90;99.90
5675;DHT22;2860;54.284;10.158;2022-11-15T00:58:24;3.90;99.90
5675;DHT22;2860;54.284;10.158;2022-11-15T01:00:49;3.90;99.90
5675;DHT22;2860;54.284;10.158;2022-11-15T01:03:15;3.90;99.90
5675;DHT22;2860;54.284;10.158;2022-11-15T01:05:40;3.90;99.90
5675;DHT22;2860;54.284;10.158;2022-11-15T01:08:06;3.90;99.90
5675;DHT22;2860;54.284;10.158;2022-11-15T01:10:31;3.90;99.90
5675;DHT22;2860;54.284;10.158;2022-11-15T01:12:57;3.90;99.90
5675;DHT22;2860;54.284;10.158;2022-11-15T01:15:22;3.90;99.90
5675;DHT22;2860;54.284;10.158;2022-11-15T01:17:48;3.90;99.90
5675;DHT22;2860;54.284;10.158;2022-11-15T01:20:13;3.90;99.90
5675;DHT22;2860;54.284;10.158;2022-11-15T01:22:39;3.90;99.90
5675;DHT22;2860;54.284;10.158;2022-11-15T01:25:04;3.90;99.90
5675;DHT22;2860;54.284;10.158;2022-11-15T01:27:30;3.90;99.90
5675;DHT22;2860;54.284;10.158;2022-11-15T01:29:55;3.90;99.90
5675;DHT22;2860;54.284;10.158;2022-11-15T01:32:21;3.90;99.90
5675;DHT22;2860;54.284;10.158;2022-11-15T01:34:46;3.90;99.90
5675;DHT22;2860;54.284;10.158;2022-11-15T01:37:12;3.90;99.90
5675;DHT22;2860;54.284;10.158;2022-11-15T01:39:37;3.90;99.90
5675;DHT22;2860;54.284;10.158;2022-11-15T01:42:03;3.80;99.90
5675;DHT22;2860;54.284;10.158;2022-11-15T01:44:39;3.80;99.90
5675;DHT22;2860;54.284;10.158;2022-11-15T01:47:12;3.90;99.90
5675;DHT22;2860;54.284;10.158;2022-11-15T01:49:53;4.00;99.90
5675;DHT22;2860;54.284;10.158;2022-11-15T01:52:23;4.00;99.90
5675;DHT22;2860;54.284;10.158;2022-11-15T01:55:08;4.00;99.90
5675;DHT22;2860;54.284;10.158;2022-11-15T01:57:35;4.10;99.90
5675;DHT22;2860;54.284;10.158;2022-11-15T02:00:01;4.20;99.90
5675;DHT22;2860;54.284;10.158;2022-11-15T02:02:28;4.30;99.90
5675;DHT22;2860;54.284;10.158;2022-11-15T02:04:54;4.30;99.90
5675;DHT22;2860;54.284;10.158;2022-11-15T02:07:21;4.40;99.90
5675;DHT22;2860;54.284;10.158;2022-11-15T02:09:47;4.40;99.90
5675;DHT22;2860;54.284;10.158;2022-11-15T02:12:17;4.40;99.90
5675;DHT22;2860;54.284;10.158;2022-11-15T02:14:51;4.30;99.90
5675;DHT22;2860;54.284;10.158;2022-11-15T02:20:38;4.20;99.90
5675;DHT22;2860;54.284;10.158;2022-11-15T02:23:38;4.20;99.90
5675;DHT22;2860;54.284;10.158;2022-11-15T02:26:40;4.10;99.90
5675;DHT22;2860;54.284;10.158;2022-11-15T02:29:16;4.10;99.90
5675;DHT22;2860;54.284;10.158;2022-11-15T02:37:26;4.00;99.90
5675;DHT22;2860;54.284;10.158;2022-11-15T02:40:40;4.00;99.90
5675;DHT22;2860;54.284;10.158;2022-11-15T02:43:18;4.00;99.90
5675;DHT22;2860;54.284;10.158;2022-11-15T02:46:40;4.00;99.90
5675;DHT22;2860;54.284;10.158;2022-11-15T02:49:28;3.90;99.90
5675;DHT22;2860;54.284;10.158;2022-11-15T02:51:55;3.90;99.90
5675;DHT22;2860;54.284;10.158;2022-11-15T02:54:26;3.90;99.90
5675;DHT22;2860;54.284;10.158;2022-11-15T02:57:00;3.80;99.90
5675;DHT22;2860;54.284;10.158;2022-11-15T03:04:57;3.70;99.90
5675;DHT22;2860;54.284;10.158;2022-11-15T03:07:39;3.60;99.90
5675;DHT22;2860;54.284;10.158;2022-11-15T03:12:54;3.60;99.90
5675;DHT22;2860;54.284;10.158;2022-11-15T03:15:25;3.50;99.90
5675;DHT22;2860;54.284;10.158;2022-11-15T03:20:43;3.40;99.90
5675;DHT22;2860;54.284;10.158;2022-11-15T03:23:10;3.40;99.90
5675;DHT22;2860;54.284;10.158;2022-11-15T03:25:45;3.40;99.90
5675;DHT22;2860;54.284;10.158;2022-11-15T03:28:20;3.40;99.90
5675;DHT22;2860;54.284;10.158;2022-11-15T03:30:48;3.30;99.90
5675;DHT22;2860;54.284;10.158;2022-11-15T03:33:15;3.30;99.90
5675;DHT22;2860;54.284;10.158;2022-11-15T03:35:43;3.30;99.90
5675;DHT22;2860;54.284;10.158;2022-11-15T03:38:25;3.30;99.90
5675;DHT22;2860;54.284;10.158;2022-11-15T03:43:42;3.30;99.90
5675;DHT22;2860;54.284;10.158;2022-11-15T03:46:19;3.30;99.90
5675;DHT22;2860;54.284;10.158;2022-11-15T03:49:16;3.20;99.90
5675;DHT22;2860;54.284;10.158;2022-11-15T03:51:42;3.20;99.90
5675;DHT22;2860;54.284;10.158;2022-11-15T03:54:08;3.20;99.90
5675;DHT22;2860;54.284;10.158;2022-11-15T03:56:33;3.20;99.90
5675;DHT22;2860;54.284;10.158;2022-11-15T03:58:59;3.20;99.90
5675;DHT22;2860;54.284;10.158;2022-11-15T04:01:24;3.10;99.90
5675;DHT22;2860;54.284;10.158;2022-11-15T04:03:50;3.10;99.90
5675;DHT22;2860;54.284;10.158;2022-11-15T04:06:15;3.10;99.90
5675;DHT22;2860;54.284;10.158;2022-11-15T04:08:41;3.10;99.90
5675;DHT22;2860;54.284;10.158;2022-11-15T04:11:06;3.10;99.90
5675;DHT22;2860;54.284;10.158;2022-11-15T04:13:32;3.00;99.90
5675;DHT22;2860;54.284;10.158;2022-11-15T04:15:58;3.00;99.90
5675;DHT22;2860;54.284;10.158;2022-11-15T04:18:23;3.00;99.90
5675;DHT22;2860;54.284;10.158;2022-11-15T04:20:49;3.00;99.90
5675;DHT22;2860;54.284;10.158;2022-11-15T04:23:33;3.00;99.90
5675;DHT22;2860;54.284;10.158;2022-11-15T04:26:20;3.00;99.90
5675;DHT22;2860;54.284;10.158;2022-11-15T04:28:46;3.00;99.90
5675;DHT22;2860;54.284;10.158;2022-11-15T04:31:30;3.00;99.90
5675;DHT22;2860;54.284;10.158;2022-11-15T04:33:56;3.00;99.90
5675;DHT22;2860;54.284;10.158;2022-11-15T04:36:22;3.00;99.90
5675;DHT22;2860;54.284;10.158;2022-11-15T04:39:06;2.90;99.90
5675;DHT22;2860;54.284;10.158;2022-11-15T04:41:32;2.90;99.90
5675;DHT22;2860;54.284;10.158;2022-11-15T04:43:58;2.90;99.90
5675;DHT22;2860;54.284;10.158;2022-11-15T04:46:24;2.90;99.90
5675;DHT22;2860;54.284;10.158;2022-11-15T04:48:50;2.90;99.90
5675;DHT22;2860;54.284;10.158;2022-11-15T04:51:16;2.90;99.90
5675;DHT22;2860;54.284;10.158;2022-11-15T04:53:41;2.90;99.90
5675;DHT22;2860;54.284;10.158;2022-11-15T04:56:07;2.90;99.90
5675;DHT22;2860;54.284;10.158;2022-11-15T04:58:33;2.90;99.90
5675;DHT22;2860;54.284;10.158;2022-11-15T05:01:09;2.90;99.90
5675;DHT22;2860;54.284;10.158;2022-11-15T05:03:34;2.90;99.90
5675;DHT22;2860;54.284;10.158;2022-11-15T05:06:19;2.90;99.90
5675;DHT22;2860;54.284;10.158;2022-11-15T05:08:44;2.80;99.90
5675;DHT22;2860;54.284;10.158;2022-11-15T05:11:10;2.90;99.90
5675;DHT22;2860;54.284;10.158;2022-11-15T05:13:35;2.80;99.90
5675;DHT22;2860;54.284;10.158;2022-11-15T05:16:01;2.80;99.90
5675;DHT22;2860;54.284;10.158;2022-11-15T05:18:26;2.80;99.90
5675;DHT22;2860;54.284;10.158;2022-11-15T05:20:52;2.80;99.90
5675;DHT22;2860;54.284;10.158;2022-11-15T05:23:17;2.80;99.90
5675;DHT22;2860;54.284;10.158;2022-11-15T05:25:43;2.80;99.90
5675;DHT22;2860;54.284;10.158;2022-11-15T05:28:08;2.80;99.90
5675;DHT22;2860;54.284;10.158;2022-11-15T05:30:34;2.80;99.90
5675;DHT22;2860;54.284;10.158;2022-11-15T05:32:59;2.80;99.90
5675;DHT22;2860;54.284;10.158;2022-11-15T05:35:39;2.80;99.90
5675;DHT22;2860;54.284;10.158;2022-11-15T05:38:05;2.90;99.90
5675;DHT22;2860;54.284;10.158;2022-11-15T05:40:31;3.00;99.90
5675;DHT22;2860;54.284;10.158;2022-11-15T05:43:00;3.20;99.90
5675;DHT22;2860;54.284;10.158;2022-11-15T05:45:26;3.30;99.90
5675;DHT22;2860;54.284;10.158;2022-11-15T05:47:53;3.40;99.90
5675;DHT22;2860;54.284;10.158;2022-11-15T05:50:20;3.60;99.90
5675;DHT22;2860;54.284;10.158;2022-11-15T05:52:46;3.70;99.90
5675;DHT22;2860;54.284;10.158;2022-11-15T05:55:12;3.80;99.90
5675;DHT22;2860;54.284;10.158;2022-11-15T05:57:39;3.80;99.90
5675;DHT22;2860;54.284;10.158;2022-11-15T06:00:05;4.00;99.90
5675;DHT22;2860;54.284;10.158;2022-11-15T06:02:31;4.10;99.90
5675;DHT22;2860;54.284;10.158;2022-11-15T06:04:56;4.20;99.90
5675;DHT22;2860;54.284;10.158;2022-11-15T06:07:22;4.30;99.90
5675;DHT22;2860;54.284;10.158;2022-11-15T06:09:47;4.40;99.90
5675;DHT22;2860;54.284;10.158;2022-11-15T06:12:13;4.40;99.90
5675;DHT22;2860;54.284;10.158;2022-11-15T06:14:38;4.40;99.90
5675;DHT22;2860;54.284;10.158;2022-11-15T06:17:04;4.50;99.90
5675;DHT22;2860;54.284;10.158;2022-11-15T06:19:29;4.50;99.90
5675;DHT22;2860;54.284;10.158;2022-11-15T06:21:59;4.50;99.90
5675;DHT22;2860;54.284;10.158;2022-11-15T06:24:24;4.60;99.90
5675;DHT22;2860;54.284;10.158;2022-11-15T06:26:50;4.60;99.90
5675;DHT22;2860;54.284;10.158;2022-11-15T06:29:15;4.60;99.90
5675;DHT22;2860;54.284;10.158;2022-11-15T06:31:41;4.60;99.90
5675;DHT22;2860;54.284;10.158;2022-11-15T06:34:06;4.70;99.90
5675;DHT22;2860;54.284;10.158;2022-11-15T06:36:34;4.70;99.90
5675;DHT22;2860;54.284;10.158;2022-11-15T06:39:00;4.60;99.90
5675;DHT22;2860;54.284;10.158;2022-11-15T06:41:25;4.70;99.90
5675;DHT22;2860;54.284;10.158;2022-11-15T06:43:51;4.70;99.90
5675;DHT22;2860;54.284;10.158;2022-11-15T06:46:16;4.70;99.90
5675;DHT22;2860;54.284;10.158;2022-11-15T06:48:42;4.80;99.90
5675;DHT22;2860;54.284;10.158;2022-11-15T06:51:07;4.80;99.90
5675;DHT22;2860;54.284;10.158;2022-11-15T06:53:33;4.90;99.90
5675;DHT22;2860;54.284;10.158;2022-11-15T06:56:03;4.90;99.90
5675;DHT22;2860;54.284;10.158;2022-11-15T06:58:29;5.00;99.90
5675;DHT22;2860;54.284;10.158;2022-11-15T07:01:03;5.00;99.90
5675;DHT22;2860;54.284;10.158;2022-11-15T07:03:29;5.10;99.90
5675;DHT22;2860;54.284;10.158;2022-11-15T07:05:56;5.10;99.90
5675;DHT22;2860;54.284;10.158;2022-11-15T07:08:22;5.20;99.90
5675;DHT22;2860;54.284;10.158;2022-11-15T07:10:49;5.20;99.90
5675;DHT22;2860;54.284;10.158;2022-11-15T07:13:14;5.30;99.90
5675;DHT22;2860;54.284;10.158;2022-11-15T07:15:40;5.30;99.90
5675;DHT22;2860;54.284;10.158;2022-11-15T07:18:05;5.30;99.90
5675;DHT22;2860;54.284;10.158;2022-11-15T07:20:31;5.30;99.90
5675;DHT22;2860;54.284;10.158;2022-11-15T07:23:04;5.40;99.90
5675;DHT22;2860;54.284;10.158;2022-11-15T07:25:30;5.40;99.90
5675;DHT22;2860;54.284;10.158;2022-11-15T07:27:57;5.40;99.90
5675;DHT22;2860;54.284;10.158;2022-11-15T07:30:22;5.50;99.90
5675;DHT22;2860;54.284;10.158;2022-11-15T07:32:53;5.50;99.90
5675;DHT22;2860;54.284;10.158;2022-11-15T07:35:19;5.50;99.90
5675;DHT22;2860;54.284;10.158;2022-11-15T07:37:53;5.50;99.90
5675;DHT22;2860;54.284;10.158;2022-11-15T07:40:18;5.50;99.90
5675;DHT22;2860;54.284;10.158;2022-11-15T07:42:44;5.60;99.90
5675;DHT22;2860;54.284;10.158;2022-11-15T07:45:19;5.60;99.90
5675;DHT22;2860;54.284;10.158;2022-11-15T07:47:50;5.70;99.90
5675;DHT22;2860;54.284;10.158;2022-11-15T07:50:16;5.70;99.90
5675;DHT22;2860;54.284;10.158;2022-11-15T07:52:42;5.70;99.90
5675;DHT22;2860;54.284;10.158;2022-11-15T07:55:08;5.70;99.90
5675;DHT22;2860;54.284;10.158;2022-11-15T07:57:33;5.80;99.90
5675;DHT22;2860;54.284;10.158;2022-11-15T07:59:59;5.80;99.90
5675;DHT22;2860;54.284;10.158;2022-11-15T08:02:24;5.90;99.90
5675;DHT22;2860;54.284;10.158;2022-11-15T08:04:50;5.90;99.90
5675;DHT22;2860;54.284;10.158;2022-11-15T08:07:15;6.00;99.90
5675;DHT22;2860;54.284;10.158;2022-11-15T08:09:41;6.00;99.90
5675;DHT22;2860;54.284;10.158;2022-11-15T08:12:07;6.10;99.90
5675;DHT22;2860;54.284;10.158;2022-11-15T08:14:32;6.10;99.90
5675;DHT22;2860;54.284;10.158;2022-11-15T08:16:58;6.10;99.90
5675;DHT22;2860;54.284;10.158;2022-11-15T08:19:23;6.20;99.90
5675;DHT22;2860;54.284;10.158;2022-11-15T08:21:49;6.20;99.90
5675;DHT22;2860;54.284;10.158;2022-11-15T08:24:15;6.20;99.90
5675;DHT22;2860;54.284;10.158;2022-11-15T08:26:40;6.20;99.90
5675;DHT22;2860;54.284;10.158;2022-11-15T08:29:06;6.30;99.90
5675;DHT22;2860;54.284;10.158;2022-11-15T08:31:36;6.30;99.90
5675;DHT22;2860;54.284;10.158;2022-11-15T08:34:03;6.40;99.90
5675;DHT22;2860;54.284;10.158;2022-11-15T08:36:28;6.40;99.90
5675;DHT22;2860;54.284;10.158;2022-11-15T08:38:54;6.40;99.90
5675;DHT22;2860;54.284;10.158;2022-11-15T08:41:26;6.40;99.90
5675;DHT22;2860;54.284;10.158;2022-11-15T08:43:52;6.40;99.90
5675;DHT22;2860;54.284;10.158;2022-11-15T08:46:17;6.50;99.90
5675;DHT22;2860;54.284;10.158;2022-11-15T08:48:43;6.50;99.90
5675;DHT22;2860;54.284;10.158;2022-11-15T08:51:09;6.50;99.90
5675;DHT22;2860;54.284;10.158;2022-11-15T08:53:34;6.60;99.90
5675;DHT22;2860;54.284;10.158;2022-11-15T08:56:00;6.60;99.90
5675;DHT22;2860;54.284;10.158;2022-11-15T08:58:26;6.70;99.90
5675;DHT22;2860;54.284;10.158;2022-11-15T09:00:51;6.70;99.90
5675;DHT22;2860;54.284;10.158;2022-11-15T09:03:17;6.70;99.90
5675;DHT22;2860;54.284;10.158;2022-11-15T09:05:42;6.70;99.90
5675;DHT22;2860;54.284;10.158;2022-11-15T09:08:08;6.70;99.90
5675;DHT22;2860;54.284;10.158;2022-11-15T09:10:33;6.80;99.90
5675;DHT22;2860;54.284;10.158;2022-11-15T09:12:59;6.80;99.90
5675;DHT22;2860;54.284;10.158;2022-11-15T09:15:25;6.80;99.90
5675;DHT22;2860;54.284;10.158;2022-11-15T09:17:50;6.80;99.90
5675;DHT22;2860;54.284;10.158;2022-11-15T09:20:16;6.90;99.90
5675;DHT22;2860;54.284;10.158;2022-11-15T09:22:41;6.90;99.90
5675;DHT22;2860;54.284;10.158;2022-11-15T09:25:07;6.90;99.90
5675;DHT22;2860;54.284;10.158;2022-11-15T09:27:33;7.00;99.90
5675;DHT22;2860;54.284;10.158;2022-11-15T09:29:58;7.00;99.90
5675;DHT22;2860;54.284;10.158;2022-11-15T09:32:27;7.00;99.90
5675;DHT22;2860;54.284;10.158;2022-11-15T09:34:53;7.10;99.90
5675;DHT22;2860;54.284;10.158;2022-11-15T09:37:18;7.10;99.90
5675;DHT22;2860;54.284;10.158;2022-11-15T09:39:44;7.20;99.90
5675;DHT22;2860;54.284;10.158;2022-11-15T09:45:17;7.20;99.90
5675;DHT22;2860;54.284;10.158;2022-11-15T09:48:14;7.30;99.90
5675;DHT22;2860;54.284;10.158;2022-11-15T09:50:49;7.30;99.90
5675;DHT22;2860;54.284;10.158;2022-11-15T09:53:27;7.40;99.90
5675;DHT22;2860;54.284;10.158;2022-11-15T09:56:03;7.40;99.90
5675;DHT22;2860;54.284;10.158;2022-11-15T09:58:38;7.40;99.90
5675;DHT22;2860;54.284;10.158;2022-11-15T10:01:08;7.40;99.90
5675;DHT22;2860;54.284;10.158;2022-11-15T10:03:38;7.40;99.90
5675;DHT22;2860;54.284;10.158;2022-11-15T10:06:10;7.50;99.90
5675;DHT22;2860;54.284;10.158;2022-11-15T10:11:26;7.60;99.90
5675;DHT22;2860;54.284;10.158;2022-11-15T10:13:56;7.60;99.90
5675;DHT22;2860;54.284;10.158;2022-11-15T10:22:24;7.70;99.90
5675;DHT22;2860;54.284;10.158;2022-11-15T10:25:09;7.80;99.90
5675;DHT22;2860;54.284;10.158;2022-11-15T10:27:38;7.80;99.90
5675;DHT22;2860;54.284;10.158;2022-11-15T10:30:12;7.80;99.90
5675;DHT22;2860;54.284;10.158;2022-11-15T10:32:39;7.90;99.90
5675;DHT22;2860;54.284;10.158;2022-11-15T10:35:25;7.90;99.90
5675;DHT22;2860;54.284;10.158;2022-11-15T10:37:51;8.00;99.90
5675;DHT22;2860;54.284;10.158;2022-11-15T10:42:42;8.00;99.90
5675;DHT22;2860;54.284;10.158;2022-11-15T10:45:24;8.00;99.90
5675;DHT22;2860;54.284;10.158;2022-11-15T10:47:50;8.00;99.90
5675;DHT22;2860;54.284;10.158;2022-11-15T10:50:28;8.00;99.90
5675;DHT22;2860;54.284;10.158;2022-11-15T10:52:55;8.00;99.90
5675;DHT22;2860;54.284;10.158;2022-11-15T10:55:27;8.00;99.90
5675;DHT22;2860;54.284;10.158;2022-11-15T10:58:05;8.00;99.90
5675;DHT22;2860;54.284;10.158;2022-11-15T11:00:37;8.00;99.90
5675;DHT22;2860;54.284;10.158;2022-11-15T11:03:28;8.00;99.90
5675;DHT22;2860;54.284;10.158;2022-11-15T11:06:12;8.00;99.90
5675;DHT22;2860;54.284;10.158;2022-11-15T11:08:38;7.90;99.90
5675;DHT22;2860;54.284;10.158;2022-11-15T11:11:05;8.00;99.90
5675;DHT22;2860;54.284;10.158;2022-11-15T11:13:33;8.00;99.90
5675;DHT22;2860;54.284;10.158;2022-11-15T11:21:15;8.00;99.90
5675;DHT22;2860;54.284;10.158;2022-11-15T11:23:51;8.00;99.90
5675;DHT22;2860;54.284;10.158;2022-11-15T11:26:36;8.00;99.90
5675;DHT22;2860;54.284;10.158;2022-11-15T11:35:26;8.00;99.90
5675;DHT22;2860;54.284;10.158;2022-11-15T11:38:15;8.10;99.90
5675;DHT22;2860;54.284;10.158;2022-11-15T11:44:30;8.10;99.90
5675;DHT22;2860;54.284;10.158;2022-11-15T11:46:47;8.10;99.90
5675;DHT22;2860;54.284;10.158;2022-11-15T11:49:21;8.10;99.90
5675;DHT22;2860;54.284;10.158;2022-11-15T11:52:39;8.10;99.90
5675;DHT22;2860;54.284;10.158;2022-11-15T11:54:54;8.20;99.90
5675;DHT22;2860;54.284;10.158;2022-11-15T11:57:41;8.20;99.90
5675;DHT22;2860;54.284;10.158;2022-11-15T12:00:23;8.30;99.90
5675;DHT22;2860;54.284;10.158;2022-11-15T12:05:50;8.40;99.90
5675;DHT22;2860;54.284;10.158;2022-11-15T12:08:37;8.40;99.90
5675;DHT22;2860;54.284;10.158;2022-11-15T12:11:17;8.50;99.90
5675;DHT22;2860;54.284;10.158;2022-11-15T12:13:45;8.50;99.90
5675;DHT22;2860;54.284;10.158;2022-11-15T12:16:16;8.50;99.90
5675;DHT22;2860;54.284;10.158;2022-11-15T12:18:48;8.50;99.90
5675;DHT22;2860;54.284;10.158;2022-11-15T12:21:22;8.50;99.90
5675;DHT22;2860;54.284;10.158;2022-11-15T12:23:53;8.60;99.90
5675;DHT22;2860;54.284;10.158;2022-11-15T12:26:30;8.60;99.90
5675;DHT22;2860;54.284;10.158;2022-11-15T12:29:27;8.60;99.90
5675;DHT22;2860;54.284;10.158;2022-11-15T12:31:56;8.60;99.90
5675;DHT22;2860;54.284;10.158;2022-11-15T12:36:53;8.60;99.90
5675;DHT22;2860;54.284;10.158;2022-11-15T12:39:19;8.60;99.90
5675;DHT22;2860;54.284;10.158;2022-11-15T13:02:40;8.80;99.90
5675;DHT22;2860;54.284;10.158;2022-11-15T13:17:52;8.90;99.90
5675;DHT22;2860;54.284;10.158;2022-11-15T13:20:23;8.90;99.90
5675;DHT22;2860;54.284;10.158;2022-11-15T13:23:07;8.80;99.90
5675;DHT22;2860;54.284;10.158;2022-11-15T13:25:57;8.90;99.90
5675;DHT22;2860;54.284;10.158;2022-11-15T13:28:32;8.90;99.90
5675;DHT22;2860;54.284;10.158;2022-11-15T13:31:00;8.90;99.90
5675;DHT22;2860;54.284;10.158;2022-11-15T13:33:35;8.90;99.90
5675;DHT22;2860;54.284;10.158;2022-11-15T13:36:06;8.90;99.90
5675;DHT22;2860;54.284;10.158;2022-11-15T13:38:38;9.00;99.90
5675;DHT22;2860;54.284;10.158;2022-11-15T13:43:39;9.00;99.90
5675;DHT22;2860;54.284;10.158;2022-11-15T13:46:21;9.00;99.90
5675;DHT22;2860;54.284;10.158;2022-11-15T13:48:54;9.00;99.90
5675;DHT22;2860;54.284;10.158;2022-11-15T13:51:26;9.00;99.90
5675;DHT22;2860;54.284;10.158;2022-11-15T13:53:56;9.00;99.90
5675;DHT22;2860;54.284;10.158;2022-11-15T13:56:23;9.10;99.90
5675;DHT22;2860;54.284;10.158;2022-11-15T13:58:49;9.10;99.90
5675;DHT22;2860;54.284;10.158;2022-11-15T14:01:17;9.10;99.90
5675;DHT22;2860;54.284;10.158;2022-11-15T14:03:54;9.20;99.90
5675;DHT22;2860;54.284;10.158;2022-11-15T14:06:23;9.20;99.90
5675;DHT22;2860;54.284;10.158;2022-11-15T14:11:26;9.20;99.90
5675;DHT22;2860;54.284;10.158;2022-11-15T14:16:45;9.30;99.90
5675;DHT22;2860;54.284;10.158;2022-11-15T14:22:34;9.30;99.90
5675;DHT22;2860;54.284;10.158;2022-11-15T14:25:20;9.40;99.90
5675;DHT22;2860;54.284;10.158;2022-11-15T14:30:45;9.30;99.90
5675;DHT22;2860;54.284;10.158;2022-11-15T14:33:22;9.30;99.90
5675;DHT22;2860;54.284;10.158;2022-11-15T14:35:49;9.40;99.90
5675;DHT22;2860;54.284;10.158;2022-11-15T14:38:15;9.40;99.90
5675;DHT22;2860;54.284;10.158;2022-11-15T14:40:41;9.40;99.90
5675;DHT22;2860;54.284;10.158;2022-11-15T14:43:09;9.40;99.90
5675;DHT22;2860;54.284;10.158;2022-11-15T14:45:36;9.40;99.90
5675;DHT22;2860;54.284;10.158;2022-11-15T14:48:01;9.40;99.90
5675;DHT22;2860;54.284;10.158;2022-11-15T14:50:27;9.40;99.90
5675;DHT22;2860;54.284;10.158;2022-11-15T14:52:53;9.40;99.90
5675;DHT22;2860;54.284;10.158;2022-11-15T14:55:30;9.50;99.90
5675;DHT22;2860;54.284;10.158;2022-11-15T14:57:58;9.50;99.90
5675;DHT22;2860;54.284;10.158;2022-11-15T15:00:24;9.50;99.90
5675;DHT22;2860;54.284;10.158;2022-11-15T15:02:52;9.50;99.90
5675;DHT22;2860;54.284;10.158;2022-11-15T15:05:20;9.40;99.90
5675;DHT22;2860;54.284;10.158;2022-11-15T15:07:47;9.40;99.90
5675;DHT22;2860;54.284;10.158;2022-11-15T15:10:13;9.30;99.90
5675;DHT22;2860;54.284;10.158;2022-11-15T15:12:40;9.30;99.90
5675;DHT22;2860;54.284;10.158;2022-11-15T15:15:09;9.20;99.90
5675;DHT22;2860;54.284;10.158;2022-11-15T15:17:37;9.10;99.90
5675;DHT22;2860;54.284;10.158;2022-11-15T15:20:03;9.10;99.90
5675;DHT22;2860;54.284;10.158;2022-11-15T15:22:29;9.00;99.90
5675;DHT22;2860;54.284;10.158;2022-11-15T15:24:55;8.90;99.90
5675;DHT22;2860;54.284;10.158;2022-11-15T15:27:20;8.90;99.90
5675;DHT22;2860;54.284;10.158;2022-11-15T15:29:46;8.80;99.90
5675;DHT22;2860;54.284;10.158;2022-11-15T15:32:11;8.70;99.90
5675;DHT22;2860;54.284;10.158;2022-11-15T15:34:38;8.60;99.90
5675;DHT22;2860;54.284;10.158;2022-11-15T15:37:23;8.50;99.90
5675;DHT22;2860;54.284;10.158;2022-11-15T15:39:50;8.40;99.90
5675;DHT22;2860;54.284;10.158;2022-11-15T15:42:16;8.30;99.90
5675;DHT22;2860;54.284;10.158;2022-11-15T15:44:42;8.30;99.90
5675;DHT22;2860;54.284;10.158;2022-11-15T15:47:20;8.20;99.90
5675;DHT22;2860;54.284;10.158;2022-11-15T15:49:47;8.10;99.90
5675;DHT22;2860;54.284;10.158;2022-11-15T15:52:13;8.00;99.90
5675;DHT22;2860;54.284;10.158;2022-11-15T15:54:39;8.00;99.90
5675;DHT22;2860;54.284;10.158;2022-11-15T15:57:06;8.00;99.90
5675;DHT22;2860;54.284;10.158;2022-11-15T15:59:31;7.90;99.90
5675;DHT22;2860;54.284;10.158;2022-11-15T16:01:57;7.80;99.90
5675;DHT22;2860;54.284;10.158;2022-11-15T16:04:23;7.70;99.90
5675;DHT22;2860;54.284;10.158;2022-11-15T16:06:48;7.60;99.90
5675;DHT22;2860;54.284;10.158;2022-11-15T16:09:17;7.60;99.90
5675;DHT22;2860;54.284;10.158;2022-11-15T16:11:46;7.50;99.90
5675;DHT22;2860;54.284;10.158;2022-11-15T16:14:12;7.50;99.90
5675;DHT22;2860;54.284;10.158;2022-11-15T16:16:37;7.40;99.90
5675;DHT22;2860;54.284;10.158;2022-11-15T16:19:04;7.40;99.90
5675;DHT22;2860;54.284;10.158;2022-11-15T16:21:29;7.40;99.90
5675;DHT22;2860;54.284;10.158;2022-11-15T16:23:55;7.50;99.90
5675;DHT22;2860;54.284;10.158;2022-11-15T16:26:28;7.60;99.90
5675;DHT22;2860;54.284;10.158;2022-11-15T16:28:54;7.60;99.90
5675;DHT22;2860;54.284;10.158;2022-11-15T16:31:20;7.70;99.90
5675;DHT22;2860;54.284;10.158;2022-11-15T16:33:48;7.70;99.90
5675;DHT22;2860;54.284;10.158;2022-11-15T16:36:19;7.70;99.90
5675;DHT22;2860;54.284;10.158;2022-11-15T16:38:45;7.70;99.90
5675;DHT22;2860;54.284;10.158;2022-11-15T16:41:11;7.60;99.90
5675;DHT22;2860;54.284;10.158;2022-11-15T16:43:36;7.50;99.90
5675;DHT22;2860;54.284;10.158;2022-11-15T16:46:08;7.50;99.90
5675;DHT22;2860;54.284;10.158;2022-11-15T16:48:34;7.40;99.90
5675;DHT22;2860;54.284;10.158;2022-11-15T16:50:59;7.40;99.90
5675;DHT22;2860;54.284;10.158;2022-11-15T16:53:26;7.40;99.90
5675;DHT22;2860;54.284;10.158;2022-11-15T16:55:52;7.40;99.90
5675;DHT22;2860;54.284;10.158;2022-11-15T16:58:18;7.40;99.90
5675;DHT22;2860;54.284;10.158;2022-11-15T17:00:44;7.40;99.90
5675;DHT22;2860;54.284;10.158;2022-11-15T17:03:10;7.40;99.90
5675;DHT22;2860;54.284;10.158;2022-11-15T17:05:36;7.40;99.90
5675;DHT22;2860;54.284;10.158;2022-11-15T17:08:01;7.40;99.90
5675;DHT22;2860;54.284;10.158;2022-11-15T17:10:27;7.50;99.90
5675;DHT22;2860;54.284;10.158;2022-11-15T17:12:54;7.40;99.90
5675;DHT22;2860;54.284;10.158;2022-11-15T17:15:20;7.40;99.90
5675;DHT22;2860;54.284;10.158;2022-11-15T17:17:51;7.40;99.90
5675;DHT22;2860;54.284;10.158;2022-11-15T17:20:18;7.50;99.90
5675;DHT22;2860;54.284;10.158;2022-11-15T17:22:43;7.50;99.90
5675;DHT22;2860;54.284;10.158;2022-11-15T17:25:11;7.50;99.90
5675;DHT22;2860;54.284;10.158;2022-11-15T17:27:37;7.60;99.90
5675;DHT22;2860;54.284;10.158;2022-11-15T17:30:03;7.60;99.90
5675;DHT22;2860;54.284;10.158;2022-11-15T17:32:29;7.70;99.90
5675;DHT22;2860;54.284;10.158;2022-11-15T17:34:54;7.70;99.90
5675;DHT22;2860;54.284;10.158;2022-11-15T17:37:20;7.80;99.90
5675;DHT22;2860;54.284;10.158;2022-11-15T17:39:45;7.80;99.90
5675;DHT22;2860;54.284;10.158;2022-11-15T17:42:11;7.90;99.90
5675;DHT22;2860;54.284;10.158;2022-11-15T17:44:36;7.90;99.90
5675;DHT22;2860;54.284;10.158;2022-11-15T17:47:02;8.00;99.90
5675;DHT22;2860;54.284;10.158;2022-11-15T17:49:27;8.00;99.90
5675;DHT22;2860;54.284;10.158;2022-11-15T17:51:53;8.10;99.90
5675;DHT22;2860;54.284;10.158;2022-11-15T17:54:18;8.20;99.90
5675;DHT22;2860;54.284;10.158;2022-11-15T17:56:44;8.20;99.90
5675;DHT22;2860;54.284;10.158;2022-11-15T17:59:09;8.20;99.90